Airport ID:KN38
Update Time (UTC):15/07/2020 09:49
Wind Speed (Knots):2
Wind Direction (Magnetic):210
Temperature (°C):13
Dew Point (°C):13
Humidity (%):100
Altimeter (inHg):30.2
Density Altitude (Feet):
Visibility:<.25
Clouds (Hundreds of feet):VV000
Present Weather:FG
METAR:METAR KN38 150945Z AUTO 00000KT M1/4SM FG VV000 13/13 A3020 RMK AO2

The data displayed is for advisory purposes only and is not to be used for flight planning or operations.